createdAt,value
2017-07-10T00:00:47.665Z,77.41
2017-07-10T00:03:17.395Z,76.93
2017-07-10T00:05:47.183Z,76.78
2017-07-10T00:08:16.934Z,78.33
2017-07-10T00:10:47.403Z,77.81
2017-07-10T00:13:17.868Z,78.08
2017-07-10T00:15:48.419Z,78.04
2017-07-10T00:18:18.184Z,78.19
2017-07-10T00:20:47.967Z,78.36
2017-07-10T00:23:17.646Z,77.65
2017-07-10T00:25:47.491Z,78.08
2017-07-10T00:28:17.258Z,77.76
2017-07-10T00:30:47.415Z,78.65
2017-07-10T00:33:17.369Z,77.62
2017-07-10T00:35:47.799Z,78.11
2017-07-10T00:38:17.455Z,77.71
2017-07-10T00:40:47.161Z,78.34
2017-07-10T00:43:16.812Z,78.76
2017-07-10T00:45:46.580Z,78.42
2017-07-10T00:48:16.262Z,78.70
2017-07-10T00:50:46.710Z,78.84
2017-07-10T00:53:17.386Z,78.82
2017-07-10T00:55:47.057Z,78.63
2017-07-10T00:58:16.750Z,78.14
2017-07-10T01:00:46.423Z,78.39
2017-07-10T01:03:16.383Z,78.79
2017-07-10T01:05:46.155Z,79.23
2017-07-10T01:08:16.008Z,79.56
2017-07-10T01:10:46.170Z,79.64
2017-07-10T01:13:15.859Z,79.53
2017-07-10T01:15:46.174Z,80.40
2017-07-10T01:18:15.959Z,79.57
2017-07-10T01:20:45.845Z,79.90
2017-07-10T01:23:15.636Z,79.63
2017-07-10T01:25:45.860Z,78.94
2017-07-10T01:28:15.550Z,78.45
2017-07-10T01:30:45.206Z,78.77
2017-07-10T01:33:14.931Z,79.23
2017-07-10T01:35:44.754Z,78.83
2017-07-10T01:38:15.188Z,79.40
2017-07-10T01:40:45.061Z,79.83
2017-07-10T01:43:16.076Z,79.29
2017-07-10T01:45:45.843Z,78.97
2017-07-10T01:48:15.534Z,78.96
2017-07-10T01:50:45.187Z,79.22
2017-07-10T01:53:14.644Z,79.83
2017-07-10T01:55:44.347Z,79.93
2017-07-10T01:58:14.110Z,78.75
2017-07-10T02:00:43.846Z,78.80
2017-07-10T02:03:13.735Z,79.32
2017-07-10T02:05:42.763Z,79.63
2017-07-10T02:08:12.467Z,79.31
2017-07-10T02:10:42.267Z,79.29
2017-07-10T02:13:11.974Z,79.05
2017-07-10T02:15:41.653Z,78.59
2017-07-10T02:18:11.618Z,79.29
2017-07-10T02:20:41.357Z,78.82
2017-07-10T02:23:11.121Z,78.87
2017-07-10T02:25:40.777Z,78.21
2017-07-10T02:28:10.579Z,77.37
2017-07-10T02:30:40.232Z,77.40
2017-07-10T02:33:09.906Z,77.54
2017-07-10T02:35:39.567Z,78.15
2017-07-10T02:38:09.317Z,78.20
2017-07-10T02:40:38.983Z,78.70
2017-07-10T02:43:08.776Z,77.81
2017-07-10T02:45:39.096Z,77.44
2017-07-10T02:48:08.965Z,77.55
2017-07-10T02:50:39.371Z,76.88
2017-07-10T02:53:09.143Z,77.35
2017-07-10T02:55:39.433Z,77.51
2017-07-10T02:58:09.997Z,77.68
2017-07-10T03:00:39.716Z,78.27
2017-07-10T03:03:09.399Z,77.94
2017-07-10T03:05:39.058Z,77.11
2017-07-10T03:08:08.857Z,77.19
2017-07-10T03:10:38.552Z,77.14
2017-07-10T03:13:08.476Z,77.82
2017-07-10T03:15:38.946Z,78.21
2017-07-10T03:18:08.689Z,77.98
2017-07-10T03:20:38.377Z,77.80
2017-07-10T03:23:08.214Z,78.27
2017-07-10T03:25:37.969Z,77.90
2017-07-10T03:28:07.736Z,78.32
2017-07-10T03:30:38.173Z,78.01
2017-07-10T03:33:07.904Z,78.13
2017-07-10T03:35:37.647Z,77.69
2017-07-10T03:38:09.346Z,77.83
2017-07-10T03:40:39.251Z,77.98
2017-07-10T03:43:08.945Z,78.49
2017-07-10T03:45:38.652Z,78.79
2017-07-10T03:48:08.396Z,79.04
2017-07-10T03:50:38.717Z,78.70
2017-07-10T03:53:09.324Z,78.42
2017-07-10T03:55:39.242Z,77.75
2017-07-10T03:58:09.004Z,77.41
2017-07-10T04:00:39.417Z,77.31
2017-07-10T04:03:09.317Z,77.08
2017-07-10T04:05:38.995Z,76.92
2017-07-10T04:08:08.858Z,76.87
2017-07-10T04:10:39.368Z,76.86
2017-07-10T04:13:09.401Z,76.24
2017-07-10T04:15:39.181Z,77.03
2017-07-10T04:18:08.873Z,77.96
2017-07-10T04:20:38.608Z,78.00
2017-07-10T04:23:09.038Z,78.75
2017-07-10T04:25:38.702Z,78.37
2017-07-10T04:28:08.587Z,78.59
2017-07-10T04:30:38.625Z,80.09
2017-07-10T04:33:08.407Z,78.23
2017-07-10T04:35:38.089Z,78.84
2017-07-10T04:38:07.948Z,80.61
2017-07-10T04:40:37.620Z,79.93
2017-07-10T04:43:07.484Z,78.87
2017-07-10T04:45:37.186Z,81.60
2017-07-10T04:48:07.473Z,82.17
2017-07-10T04:50:37.806Z,82.69
2017-07-10T04:53:07.571Z,83.23
2017-07-10T04:55:37.735Z,82.39
2017-07-10T04:58:07.431Z,83.26
2017-07-10T05:00:37.256Z,82.64
2017-07-10T05:03:07.758Z,83.74
2017-07-10T05:05:37.438Z,84.12
2017-07-10T05:08:07.172Z,85.11
2017-07-10T05:10:37.633Z,85.53
2017-07-10T05:13:07.330Z,86.30
2017-07-10T05:15:37.039Z,85.97
2017-07-10T05:18:06.723Z,85.28
2017-07-10T05:20:36.435Z,85.36
2017-07-10T05:23:06.175Z,86.48
2017-07-10T05:25:35.991Z,87.36
2017-07-10T05:28:05.663Z,87.68
2017-07-10T05:30:35.477Z,87.71
2017-07-10T05:33:05.171Z,87.57
2017-07-10T05:35:34.977Z,88.40
2017-07-10T05:38:04.795Z,88.23
2017-07-10T05:40:34.990Z,88.29
2017-07-10T05:43:04.694Z,88.41
2017-07-10T05:45:34.368Z,89.05
2017-07-10T05:48:04.250Z,89.17
2017-07-10T05:50:33.923Z,90.03
2017-07-10T05:53:03.911Z,89.66
2017-07-10T05:55:34.207Z,89.08
2017-07-10T05:58:03.942Z,88.89
2017-07-10T06:00:33.716Z,89.32
2017-07-10T06:03:03.422Z,89.59
2017-07-10T06:05:33.171Z,89.33
2017-07-10T06:08:02.887Z,89.12
2017-07-10T06:10:32.567Z,88.75
2017-07-10T06:13:02.342Z,89.14
2017-07-10T06:15:32.651Z,88.50
2017-07-10T06:18:02.485Z,87.79
2017-07-10T06:20:32.231Z,89.63
2017-07-10T06:23:01.916Z,89.21
2017-07-10T06:25:30.962Z,87.58
2017-07-10T06:28:00.649Z,89.09
2017-07-10T06:30:31.114Z,90.71
2017-07-10T06:33:00.802Z,89.70
2017-07-10T06:35:30.494Z,88.53
2017-07-10T06:38:00.149Z,89.68
2017-07-10T06:40:29.862Z,89.68
2017-07-10T06:42:59.554Z,88.66
2017-07-10T06:45:29.459Z,87.34
2017-07-10T06:47:59.195Z,86.48
2017-07-10T06:50:28.917Z,88.21
2017-07-10T06:52:58.607Z,89.97
2017-07-10T06:55:28.340Z,91.26
2017-07-10T06:57:58.856Z,91.62
2017-07-10T07:00:28.591Z,90.71
2017-07-10T07:02:58.251Z,91.34
2017-07-10T07:05:28.296Z,91.22
2017-07-10T07:07:58.040Z,91.81
2017-07-10T07:10:27.780Z,91.61
2017-07-10T07:12:57.539Z,91.12
2017-07-10T07:15:27.978Z,91.22
2017-07-10T07:17:58.426Z,90.75
2017-07-10T07:20:28.114Z,90.53
2017-07-10T07:22:57.905Z,91.21
2017-07-10T07:25:27.564Z,92.23
2017-07-10T07:27:57.252Z,92.99
2017-07-10T07:30:26.991Z,92.62
2017-07-10T07:32:57.251Z,92.80
2017-07-10T07:35:26.967Z,93.54
2017-07-10T07:37:56.631Z,93.92
2017-07-10T07:40:26.306Z,93.31
2017-07-10T07:42:56.759Z,92.83
2017-07-10T07:45:26.506Z,92.27
2017-07-10T07:47:56.226Z,92.15
2017-07-10T07:50:26.681Z,91.73
2017-07-10T07:52:56.490Z,91.49
2017-07-10T07:55:26.303Z,91.91
2017-07-10T07:57:58.582Z,91.61
2017-07-10T08:00:30.432Z,91.01
2017-07-10T08:03:00.230Z,90.54
2017-07-10T08:05:29.926Z,90.72
2017-07-10T08:07:59.614Z,90.37
2017-07-10T08:10:29.921Z,90.28
2017-07-10T08:12:59.628Z,91.03
2017-07-10T08:15:29.307Z,91.58
2017-07-10T08:17:59.040Z,91.68
2017-07-10T08:20:28.846Z,91.10
2017-07-10T08:22:58.530Z,91.22
2017-07-10T08:25:28.242Z,91.17
2017-07-10T08:27:58.800Z,91.17
2017-07-10T08:30:28.562Z,91.70
2017-07-10T08:32:58.123Z,91.14
2017-07-10T08:35:27.623Z,91.28
2017-07-10T08:37:57.399Z,91.90
2017-07-10T08:40:27.815Z,91.57
2017-07-10T08:42:57.644Z,91.53
2017-07-10T08:45:27.389Z,91.82
2017-07-10T08:47:57.195Z,91.65
2017-07-10T08:50:26.911Z,91.11
2017-07-10T08:52:57.343Z,90.41
2017-07-10T08:55:27.133Z,90.46
2017-07-10T08:57:56.802Z,89.93
2017-07-10T09:00:32.850Z,90.04
2017-07-10T09:03:04.492Z,89.93
2017-07-10T09:05:34.204Z,89.36
2017-07-10T09:08:03.916Z,88.51
2017-07-10T09:10:33.618Z,88.30
2017-07-10T09:13:03.371Z,88.79
2017-07-10T09:15:33.154Z,85.95
2017-07-10T09:18:02.921Z,83.84
2017-07-10T09:20:32.607Z,82.86
2017-07-10T09:23:02.344Z,82.86
2017-07-10T09:25:32.017Z,83.35
2017-07-10T09:28:01.679Z,84.99
2017-07-10T09:30:31.373Z,83.61
2017-07-10T09:33:01.079Z,81.98
2017-07-10T09:35:30.810Z,79.79
2017-07-10T09:38:00.610Z,79.90
2017-07-10T09:40:30.490Z,81.26
2017-07-10T09:43:00.250Z,80.70
2017-07-10T09:45:29.954Z,81.79
2017-07-10T09:47:59.338Z,81.67
2017-07-10T09:50:29.073Z,80.46
2017-07-10T09:52:58.758Z,80.18
2017-07-10T09:55:28.546Z,82.68
2017-07-10T09:57:58.874Z,80.72
2017-07-10T10:00:28.691Z,79.01
2017-07-10T10:02:59.054Z,78.96
2017-07-10T10:05:28.829Z,78.76
2017-07-10T10:07:58.599Z,78.05
2017-07-10T10:10:28.286Z,78.50
2017-07-10T10:12:58.633Z,79.13
2017-07-10T10:15:28.301Z,80.73
2017-07-10T10:17:58.010Z,79.08
2017-07-10T10:20:27.806Z,79.69
2017-07-10T10:22:57.568Z,78.89
2017-07-10T10:25:27.800Z,79.49
2017-07-10T10:27:57.740Z,77.71
2017-07-10T10:30:27.553Z,75.49
2017-07-10T10:32:57.575Z,75.16
2017-07-10T10:35:27.291Z,74.29
2017-07-10T10:37:56.979Z,73.80
2017-07-10T10:40:26.689Z,74.28
2017-07-10T10:42:56.395Z,74.30
2017-07-10T10:45:26.066Z,73.56
2017-07-10T10:47:55.718Z,74.26
2017-07-10T10:50:25.409Z,74.46
2017-07-10T10:52:55.725Z,74.19
2017-07-10T10:55:25.417Z,75.05
2017-07-10T10:57:55.261Z,74.93
2017-07-10T11:00:25.054Z,75.44
2017-07-10T11:02:54.752Z,74.92
2017-07-10T11:05:24.546Z,74.28
2017-07-10T11:07:54.963Z,75.42
2017-07-10T11:10:24.720Z,75.51
2017-07-10T11:12:54.452Z,76.37
2017-07-10T11:15:24.226Z,75.89
2017-07-10T11:17:53.915Z,74.99
2017-07-10T11:20:24.231Z,74.81
2017-07-10T11:22:53.966Z,75.24
2017-07-10T11:25:23.655Z,74.73
2017-07-10T11:27:54.069Z,72.57
2017-07-10T11:30:24.417Z,72.66
2017-07-10T11:32:54.159Z,71.03
2017-07-10T11:35:24.490Z,71.25
2017-07-10T11:37:54.226Z,69.15
2017-07-10T11:40:23.937Z,69.49
2017-07-10T11:42:53.649Z,70.75
2017-07-10T11:45:23.303Z,71.69
2017-07-10T11:47:53.006Z,71.47
2017-07-10T11:50:22.802Z,69.00
2017-07-10T11:52:52.507Z,68.71
2017-07-10T11:55:22.160Z,67.98
2017-07-10T11:57:51.899Z,66.09
2017-07-10T12:00:21.653Z,64.82
2017-07-10T12:02:51.353Z,65.21
2017-07-10T12:05:21.182Z,64.86
2017-07-10T12:07:53.859Z,65.15
2017-07-10T12:10:24.540Z,64.61
2017-07-10T12:12:54.877Z,64.93
2017-07-10T12:15:25.360Z,64.03
2017-07-10T12:17:55.047Z,63.29
2017-07-10T12:20:24.743Z,63.86
2017-07-10T12:22:54.494Z,63.82
2017-07-10T12:25:24.143Z,63.66
2017-07-10T12:27:53.924Z,63.86
2017-07-10T12:30:23.604Z,63.63
2017-07-10T12:32:53.386Z,62.99
2017-07-10T12:35:23.170Z,62.47
2017-07-10T12:37:53.029Z,62.72
2017-07-10T12:40:22.701Z,61.87
2017-07-10T12:42:52.370Z,61.22
2017-07-10T12:45:22.675Z,59.94
2017-07-10T12:47:52.407Z,58.53
2017-07-10T12:50:22.185Z,58.53
2017-07-10T12:52:52.386Z,58.77
2017-07-10T12:55:22.840Z,59.15
2017-07-10T12:57:52.627Z,58.93
2017-07-10T13:00:22.275Z,59.28
2017-07-10T13:02:52.689Z,58.81
2017-07-10T13:05:22.367Z,58.39
2017-07-10T13:07:52.802Z,58.55
2017-07-10T13:10:23.331Z,58.27
2017-07-10T13:12:53.086Z,58.27
2017-07-10T13:15:22.663Z,58.20
2017-07-10T13:17:52.307Z,58.15
2017-07-10T13:20:22.114Z,58.57
2017-07-10T13:22:51.758Z,58.35
2017-07-10T13:25:21.636Z,57.05
2017-07-10T13:27:51.310Z,55.20
2017-07-10T13:30:21.073Z,54.97
2017-07-10T13:32:50.741Z,53.53
2017-07-10T13:35:21.201Z,53.76
2017-07-10T13:37:51.605Z,54.73
2017-07-10T13:40:22.355Z,55.84
2017-07-10T13:42:52.693Z,55.38
2017-07-10T13:45:22.360Z,54.01
2017-07-10T13:47:52.055Z,54.99
2017-07-10T13:50:21.842Z,55.94
2017-07-10T13:52:51.559Z,55.98
2017-07-10T13:55:21.251Z,54.86
2017-07-10T13:57:50.894Z,54.65
2017-07-10T14:00:20.868Z,54.20
2017-07-10T14:02:50.519Z,53.89
2017-07-10T14:05:20.255Z,53.99
2017-07-10T14:07:50.031Z,54.18
2017-07-10T14:10:19.747Z,54.76
2017-07-10T14:12:49.481Z,54.07
2017-07-10T14:15:19.139Z,53.01
2017-07-10T14:17:49.591Z,53.75
2017-07-10T14:20:19.248Z,54.13
2017-07-10T14:22:48.967Z,54.62
2017-07-10T14:25:18.640Z,54.97
2017-07-10T14:27:48.288Z,55.53
2017-07-10T14:30:18.102Z,56.26
2017-07-10T14:32:47.758Z,55.83
2017-07-10T14:35:17.436Z,56.19
2017-07-10T14:37:47.091Z,56.67
2017-07-10T14:40:16.770Z,57.88
2017-07-10T14:42:47.077Z,64.29
2017-07-10T14:45:16.812Z,65.53
2017-07-10T14:47:46.892Z,64.55
2017-07-10T14:50:16.547Z,66.60
2017-07-10T14:52:46.219Z,67.27
2017-07-10T14:55:15.906Z,67.81
2017-07-10T14:57:45.608Z,67.97
2017-07-10T15:00:15.354Z,68.55
2017-07-10T15:02:45.047Z,68.12
2017-07-10T15:05:15.365Z,67.16
2017-07-10T15:07:45.064Z,67.43
2017-07-10T15:10:14.830Z,67.13
2017-07-10T15:12:44.471Z,67.67
2017-07-10T15:17:39.547Z,67.23
2017-07-10T15:20:09.385Z,66.18
2017-07-10T15:22:39.097Z,66.00
2017-07-10T15:25:08.818Z,66.70
2017-07-10T15:27:38.551Z,67.16
2017-07-10T15:30:08.231Z,67.59
2017-07-10T15:32:38.494Z,67.88
2017-07-10T15:35:08.283Z,67.21
2017-07-10T15:37:37.994Z,67.68
2017-07-10T15:40:07.674Z,68.44
2017-07-10T15:42:37.355Z,73.01
2017-07-10T15:45:07.138Z,75.82
2017-07-10T15:47:36.830Z,76.78
2017-07-10T15:50:06.513Z,77.20
2017-07-10T15:52:36.184Z,77.16
2017-07-10T15:55:05.884Z,78.85
2017-07-10T15:57:39.992Z,81.36
2017-07-10T16:00:15.108Z,81.21
2017-07-10T16:02:44.830Z,82.18
2017-07-10T16:05:15.593Z,82.14
2017-07-10T16:07:47.323Z,82.71
2017-07-10T16:10:19.316Z,82.66
2017-07-10T16:12:51.082Z,82.78
2017-07-10T16:15:21.040Z,82.98
2017-07-10T16:17:50.708Z,81.36
2017-07-10T16:20:20.694Z,82.80
2017-07-10T16:22:50.480Z,80.76
2017-07-10T16:25:20.138Z,81.47
2017-07-10T16:27:49.816Z,83.42
2017-07-10T16:30:19.557Z,82.98
2017-07-10T16:32:49.312Z,83.14
2017-07-10T16:35:19.521Z,82.74
2017-07-10T16:37:49.235Z,82.55
2017-07-10T16:40:19.191Z,83.48
2017-07-10T16:42:48.970Z,81.14
2017-07-10T16:45:18.687Z,82.97
2017-07-10T16:47:48.450Z,83.50
2017-07-10T16:50:18.318Z,84.61
2017-07-10T16:52:47.973Z,83.66
2017-07-10T16:55:17.783Z,84.30
2017-07-10T16:57:47.556Z,83.96
2017-07-10T17:00:24.480Z,84.08
2017-07-10T17:02:56.298Z,84.17
2017-07-10T17:05:26.037Z,83.66
2017-07-10T17:07:55.716Z,83.75
2017-07-10T17:10:25.594Z,84.64
2017-07-10T17:12:55.270Z,84.69
2017-07-10T17:15:25.055Z,84.07
2017-07-10T17:17:55.099Z,84.81
2017-07-10T17:20:24.908Z,85.73
2017-07-10T17:22:57.007Z,85.17
2017-07-10T17:25:28.521Z,85.34
2017-07-10T17:27:58.386Z,83.65
2017-07-10T17:30:28.138Z,84.26
2017-07-10T17:32:57.850Z,84.72
2017-07-10T17:35:27.590Z,84.92
2017-07-10T17:37:57.278Z,85.25
2017-07-10T17:40:27.046Z,85.32
2017-07-10T17:42:56.722Z,85.96
2017-07-10T17:45:26.491Z,86.14
2017-07-10T17:47:56.910Z,86.32
2017-07-10T17:50:26.729Z,86.58
2017-07-10T17:52:56.507Z,85.74
2017-07-10T17:55:26.302Z,86.16
2017-07-10T17:57:56.377Z,86.66
2017-07-10T18:00:26.137Z,87.91
2017-07-10T18:03:03.869Z,86.74
2017-07-10T18:05:36.385Z,87.22
2017-07-10T18:08:06.174Z,87.82
2017-07-10T18:10:35.967Z,87.67
2017-07-10T18:13:05.683Z,87.38
2017-07-10T18:15:35.444Z,87.53
2017-07-10T18:18:05.711Z,86.71
2017-07-10T18:20:35.474Z,87.36
2017-07-10T18:23:05.249Z,86.91
2017-07-10T18:25:35.029Z,87.89
2017-07-10T18:28:04.791Z,87.47
2017-07-10T18:30:36.507Z,87.22
2017-07-10T18:33:08.142Z,87.41
2017-07-10T18:35:39.739Z,86.98
2017-07-10T18:38:12.091Z,86.63
2017-07-10T18:40:43.899Z,86.67
2017-07-10T18:43:14.500Z,85.47
2017-07-10T18:45:47.050Z,84.49
2017-07-10T18:48:20.447Z,84.03
2017-07-10T18:50:51.271Z,83.88
2017-07-10T18:53:22.224Z,84.01
2017-07-10T18:55:55.234Z,85.09
2017-07-10T18:58:26.917Z,85.46
2017-07-10T19:00:58.037Z,85.28
2017-07-10T19:03:29.261Z,84.95
2017-07-10T19:06:01.124Z,86.00
2017-07-10T19:08:31.854Z,85.53
2017-07-10T19:11:03.058Z,85.24
2017-07-10T19:13:34.362Z,84.90
2017-07-10T19:16:05.155Z,83.91
2017-07-10T19:18:34.851Z,84.80
2017-07-10T19:21:04.573Z,83.43
2017-07-10T19:23:34.348Z,82.93
2017-07-10T19:26:04.125Z,83.03
2017-07-10T19:28:33.879Z,82.55
2017-07-10T19:31:04.727Z,82.76
2017-07-10T19:33:38.446Z,83.03
2017-07-10T19:36:10.470Z,82.19
2017-07-10T19:38:42.096Z,82.22
2017-07-10T19:41:14.830Z,82.38
2017-07-10T19:43:46.290Z,82.05
2017-07-10T19:46:18.828Z,82.20
2017-07-10T19:48:51.239Z,82.52
2017-07-10T19:51:23.501Z,82.30
2017-07-10T19:53:54.588Z,82.45
2017-07-10T19:56:26.667Z,81.70
2017-07-10T19:58:57.340Z,82.09
2017-07-10T20:01:27.979Z,82.65
2017-07-10T20:03:59.786Z,82.21
2017-07-10T20:06:32.817Z,81.76
2017-07-10T20:09:03.216Z,79.71
2017-07-10T20:11:35.009Z,80.68
2017-07-10T20:14:07.009Z,81.16
2017-07-10T20:16:36.963Z,79.67
2017-07-10T20:19:07.824Z,79.16
2017-07-10T20:21:39.743Z,80.20
2017-07-10T20:24:12.989Z,80.56
2017-07-10T20:26:44.985Z,80.36
2017-07-10T20:29:17.340Z,79.43
2017-07-10T20:31:49.301Z,78.98
2017-07-10T20:34:22.080Z,80.04
2017-07-10T20:36:53.859Z,80.57
2017-07-10T20:39:27.207Z,80.78
2017-07-10T20:41:59.621Z,81.00
2017-07-10T20:44:31.631Z,81.92
2017-07-10T20:47:04.740Z,81.96
2017-07-10T20:49:40.237Z,82.15
2017-07-10T20:52:11.580Z,82.74
2017-07-10T20:54:43.399Z,82.88
2017-07-10T20:57:13.082Z,83.07
2017-07-10T20:59:42.839Z,82.48
2017-07-10T21:02:12.560Z,83.66
2017-07-10T21:04:42.346Z,83.61
2017-07-10T21:07:12.051Z,83.63
2017-07-10T21:09:41.750Z,83.86
2017-07-10T21:12:11.500Z,84.05
2017-07-10T21:14:41.169Z,84.16
2017-07-10T21:17:10.888Z,84.46
2017-07-10T21:19:40.599Z,84.03
2017-07-10T21:22:10.333Z,83.40
2017-07-10T21:24:40.030Z,83.76
2017-07-10T21:27:09.782Z,84.21
2017-07-10T21:29:39.501Z,84.20
2017-07-10T21:32:09.165Z,83.66
2017-07-10T21:34:38.831Z,83.35
2017-07-10T21:37:08.551Z,84.05
2017-07-10T21:39:38.216Z,83.77
2017-07-10T21:42:07.913Z,83.69
2017-07-10T21:44:37.577Z,83.46
2017-07-10T21:47:07.281Z,83.60
2017-07-10T21:49:37.132Z,84.16
2017-07-10T21:54:43.905Z,84.32
2017-07-10T21:57:13.557Z,84.58
2017-07-10T21:59:43.265Z,84.47
2017-07-10T22:02:12.924Z,84.75
2017-07-10T22:04:42.649Z,84.39
2017-07-10T22:07:12.326Z,84.54
2017-07-10T22:09:42.022Z,84.59
2017-07-10T22:12:11.703Z,84.77
2017-07-10T22:14:41.367Z,84.78
2017-07-10T22:17:11.055Z,84.92
2017-07-10T22:19:40.725Z,85.32
2017-07-10T22:22:10.490Z,85.09
2017-07-10T22:24:40.157Z,85.46
2017-07-10T22:27:09.896Z,85.28
2017-07-10T22:29:39.601Z,85.75
2017-07-10T22:32:09.254Z,85.42
2017-07-10T22:34:38.938Z,85.75
2017-07-10T22:37:08.601Z,86.09
2017-07-10T22:39:38.290Z,85.37
2017-07-10T22:42:07.937Z,85.65
2017-07-10T22:44:37.574Z,86.07
2017-07-10T22:47:07.326Z,85.77
2017-07-10T22:49:36.998Z,85.58
2017-07-10T22:52:06.682Z,85.89
2017-07-10T22:54:41.629Z,86.39
2017-07-10T22:57:11.324Z,86.24
2017-07-10T22:59:40.952Z,85.90
2017-07-10T23:02:10.677Z,86.33
2017-07-10T23:04:40.370Z,86.22
2017-07-10T23:07:10.114Z,85.64
2017-07-10T23:09:39.924Z,85.89
2017-07-10T23:12:09.669Z,85.47
2017-07-10T23:14:39.654Z,85.94
2017-07-10T23:17:09.318Z,85.81
2017-07-10T23:19:38.991Z,86.42
2017-07-10T23:22:08.664Z,86.10
2017-07-10T23:24:38.317Z,86.21
2017-07-10T23:27:08.018Z,86.16
2017-07-10T23:29:37.671Z,86.01
2017-07-10T23:32:07.424Z,85.63
2017-07-10T23:34:37.098Z,85.30
2017-07-10T23:37:06.745Z,85.74
2017-07-10T23:39:36.410Z,85.64
2017-07-10T23:42:06.054Z,85.58
2017-07-10T23:44:35.749Z,85.98
2017-07-10T23:47:05.425Z,86.17
2017-07-10T23:49:35.129Z,86.36
2017-07-10T23:52:04.787Z,86.13
2017-07-10T23:54:34.420Z,86.31
2017-07-10T23:57:04.097Z,86.69
2017-07-10T23:59:33.759Z,86.24
